Time;durP1;ratioP1;P1;durP2;ratioP2;P2;SDS_P1;SDS_P2;PMS_P1;PMS_P2;Temp;Humidity;BMP_temperature;BMP_pressure;BME280_temperature;BME280_humidity;BME280_pressure;Samples;Min_cycle;Max_cycle;Signal;HPM_P1;HPM_P2
2022/03/07 00:01:02;;;;;;;3.60;2.07;;;16.20;45.10;17.00;101788.00;;;;5032758;28;20195;-47
2022/03/07 00:03:27;;;;;;;2.50;2.27;;;16.20;45.10;17.00;101798.00;;;;5031852;28;20198;-46
2022/03/07 00:05:53;;;;;;;4.57;2.30;;;16.20;45.10;17.00;101799.00;;;;5041970;28;20206;-46
2022/03/07 00:08:19;;;;;;;2.83;2.23;;;16.20;45.00;17.00;101801.00;;;;5047569;28;20186;-47
2022/03/07 00:10:44;;;;;;;2.73;2.10;;;16.20;45.10;16.90;101792.00;;;;5047945;28;20198;-47
2022/03/07 00:13:10;;;;;;;2.50;2.30;;;16.20;45.00;16.90;101789.00;;;;5037236;28;20171;-45
2022/03/07 00:15:36;;;;;;;2.40;2.20;;;16.10;44.90;16.90;101801.00;;;;5032092;28;20209;-46
2022/03/07 00:18:02;;;;;;;2.30;2.10;;;16.10;44.90;16.90;101799.00;;;;5031440;28;20186;-47
2022/03/07 00:20:27;;;;;;;2.50;2.30;;;16.10;44.90;16.90;101794.00;;;;5032068;28;20188;-47
2022/03/07 00:22:53;;;;;;;2.83;2.27;;;16.00;44.80;16.90;101802.00;;;;5032814;28;20186;-46
2022/03/07 00:25:19;;;;;;;2.40;2.20;;;16.10;44.80;16.90;101799.00;;;;5030575;28;20218;-46
2022/03/07 00:27:44;;;;;;;2.20;2.00;;;16.00;44.80;16.80;101810.00;;;;5031814;28;20167;-46
2022/03/07 00:30:11;;;;;;;2.60;2.13;;;16.00;44.80;16.80;101807.00;;;;5031815;28;20612;-46
2022/03/07 00:32:36;;;;;;;3.33;2.40;;;16.00;44.80;16.80;101810.00;;;;5031945;28;20238;-46
2022/03/07 00:35:02;;;;;;;3.00;2.20;;;15.90;44.70;16.80;101811.00;;;;5031344;28;20206;-46
2022/03/07 00:37:28;;;;;;;2.40;2.20;;;15.90;44.80;16.70;101812.00;;;;5032007;28;20670;-47
2022/03/07 00:39:53;;;;;;;2.40;2.20;;;15.90;44.70;16.70;101806.00;;;;5031590;28;20433;-47
2022/03/07 00:42:19;;;;;;;2.37;2.17;;;15.90;44.70;16.70;101814.00;;;;5032467;28;20541;-46
2022/03/07 00:44:45;;;;;;;2.33;2.10;;;15.90;44.80;16.70;101804.00;;;;5031458;28;20206;-46
2022/03/07 00:47:10;;;;;;;5.23;2.37;;;15.80;44.70;16.70;101805.00;;;;5031259;28;20171;-45
2022/03/07 00:49:36;;;;;;;2.73;2.17;;;15.80;44.60;16.60;101811.00;;;;5031680;28;20678;-47
2022/03/07 00:52:02;;;;;;;2.50;2.30;;;15.80;44.70;16.70;101813.00;;;;5031709;28;20175;-47
2022/03/07 00:54:28;;;;;;;2.47;2.27;;;15.80;44.60;16.60;101818.00;;;;5030875;28;20203;-45
2022/03/07 00:56:54;;;;;;;2.40;2.20;;;15.80;44.70;16.60;101815.00;;;;5033599;28;20214;-46
2022/03/07 00:59:19;;;;;;;2.30;1.87;;;15.70;44.60;16.60;101815.00;;;;5038987;28;20191;-47
2022/03/07 01:01:45;;;;;;;2.63;2.27;;;15.70;44.60;16.60;101822.00;;;;5032559;28;20175;-46
2022/03/07 01:04:11;;;;;;;2.33;2.13;;;15.70;44.60;16.50;101816.00;;;;5033183;28;20683;-47
2022/03/07 01:06:36;;;;;;;2.40;2.20;;;15.60;44.60;16.50;101817.00;;;;5032265;28;20197;-48
2022/03/07 01:09:02;;;;;;;2.60;2.13;;;15.60;44.60;16.50;101817.00;;;;5031135;28;20228;-45
2022/03/07 01:11:28;;;;;;;2.50;2.30;;;15.60;44.70;16.50;101823.00;;;;5031388;28;20198;-46
2022/03/07 01:13:53;;;;;;;2.47;2.17;;;15.60;44.70;16.50;101813.00;;;;5030534;28;20676;-47
2022/03/07 01:16:19;;;;;;;2.50;2.30;;;15.60;44.60;16.50;101820.00;;;;5030938;28;20468;-48
2022/03/07 01:18:45;;;;;;;2.00;1.90;;;15.50;44.70;16.40;101814.00;;;;5030278;28;20171;-48
2022/03/07 01:21:12;;;;;;;2.30;2.10;;;15.50;44.70;16.40;101824.00;;;;5029895;28;20183;-46
2022/03/07 01:23:38;;;;;;;2.30;2.10;;;15.50;44.70;16.40;101807.00;;;;5028927;28;20264;-44
2022/03/07 01:26:03;;;;;;;2.13;2.03;;;15.40;44.70;16.40;101805.00;;;;5029771;28;20606;-45
2022/03/07 01:28:29;;;;;;;2.40;2.20;;;15.40;44.80;16.40;101807.00;;;;5029800;28;20171;-46
2022/03/07 01:30:55;;;;;;;2.20;2.00;;;15.40;44.70;16.30;101806.00;;;;5030187;28;20183;-45
2022/03/07 01:33:21;;;;;;;2.00;1.90;;;15.40;44.70;16.30;101791.00;;;;5030780;28;20182;-46
2022/03/07 01:35:46;;;;;;;2.20;2.00;;;15.40;45.30;16.30;101793.00;;;;5030783;28;20183;-46
2022/03/07 01:38:12;;;;;;;2.23;2.03;;;15.30;44.70;16.30;101797.00;;;;5030670;28;20252;-45
2022/03/07 01:40:38;;;;;;;2.00;1.90;;;15.30;44.80;16.30;101794.00;;;;5030588;28;20179;-46
2022/03/07 01:43:06;;;;;;;1.80;1.70;;;15.30;44.80;16.20;101791.00;;;;5030083;28;20175;-47
2022/03/07 01:45:31;;;;;;;2.10;2.00;;;15.30;44.80;16.20;101795.00;;;;5029927;28;20694;-46
2022/03/07 01:47:57;;;;;;;1.90;1.80;;;15.20;44.70;16.20;101794.00;;;;5030249;28;20175;-47
2022/03/07 01:50:23;;;;;;;2.07;1.87;;;15.20;44.80;16.20;101791.00;;;;5031048;28;20186;-46
2022/03/07 01:52:53;;;;;;;2.00;1.90;;;15.20;44.80;16.20;101782.00;;;;5030612;28;20702;-46
2022/03/07 01:55:19;;;;;;;1.97;1.87;;;15.20;44.80;16.20;101785.00;;;;5029156;28;20199;-47
2022/03/07 01:57:46;;;;;;;1.90;1.80;;;15.10;44.90;16.20;101786.00;;;;5030502;28;20197;-46
2022/03/07 02:00:22;;;;;;;1.80;1.70;;;15.10;44.90;16.20;101793.00;;;;5030175;28;20260;-46
2022/03/07 02:02:48;;;;;;;2.03;1.83;;;15.10;44.80;16.10;101785.00;;;;5029795;28;20258;-46
2022/03/07 02:05:14;;;;;;;1.93;1.83;;;15.10;44.80;16.10;101781.00;;;;5030007;28;20772;-47
2022/03/07 02:07:40;;;;;;;1.83;1.73;;;15.00;44.70;16.10;101783.00;;;;5029303;28;20178;-46
2022/03/07 02:10:07;;;;;;;1.93;1.83;;;15.00;44.80;16.10;101777.00;;;;5028940;28;20535;-46
2022/03/07 02:12:32;;;;;;;2.10;1.90;;;15.00;44.80;16.10;101775.00;;;;5029627;28;20254;-45
2022/03/07 02:14:58;;;;;;;1.63;1.53;;;15.00;44.80;16.00;101780.00;;;;5030856;28;20649;-46
2022/03/07 02:17:24;;;;;;;1.80;1.70;;;15.00;44.90;16.00;101787.00;;;;5036696;28;20249;-47
2022/03/07 02:19:49;;;;;;;2.10;1.90;;;15.00;44.90;16.00;101787.00;;;;5030187;28;20217;-46
2022/03/07 02:22:16;;;;;;;2.00;1.80;;;14.90;44.80;16.00;101786.00;;;;5029132;28;20545;-47
2022/03/07 02:24:42;;;;;;;1.90;1.80;;;14.90;44.80;16.00;101788.00;;;;5027856;28;20256;-48
2022/03/07 02:27:09;;;;;;;1.90;1.80;;;14.90;44.90;16.00;101783.00;;;;5029951;28;20271;-46
2022/03/07 02:29:35;;;;;;;1.83;1.73;;;14.90;44.90;16.00;101783.00;;;;5029590;28;20328;-46
2022/03/07 02:32:01;;;;;;;1.80;1.70;;;14.80;44.90;16.00;101789.00;;;;5031590;28;20175;-46
2022/03/07 02:34:27;;;;;;;1.80;1.70;;;14.90;44.90;15.90;101718.00;;;;5032630;28;20233;-46
2022/03/07 02:36:52;;;;;;;1.90;1.80;;;14.80;44.80;15.90;101788.00;;;;5032493;28;20179;-45
2022/03/07 02:39:18;;;;;;;1.80;1.70;;;14.80;44.90;15.90;101783.00;;;;5032750;28;20179;-46
2022/03/07 02:41:44;;;;;;;1.70;1.60;;;14.80;45.00;15.90;101781.00;;;;5032925;28;20182;-45
2022/03/07 02:44:10;;;;;;;1.80;1.70;;;14.80;45.00;15.90;101800.00;;;;5032592;28;20273;-45
2022/03/07 02:46:36;;;;;;;1.83;1.73;;;14.80;45.00;15.80;101780.00;;;;5031687;28;20175;-47
2022/03/07 02:49:03;;;;;;;1.90;1.80;;;14.70;44.90;15.80;101780.00;;;;5032894;28;20254;-47
2022/03/07 02:51:29;;;;;;;1.70;1.60;;;14.70;45.60;15.80;101784.00;;;;5032651;28;20181;-46
2022/03/07 02:53:54;;;;;;;1.43;1.40;;;14.70;45.00;15.80;101790.00;;;;5031586;28;20664;-46
2022/03/07 02:56:20;;;;;;;1.70;1.60;;;14.70;44.90;15.80;101779.00;;;;5033881;28;20182;-46
2022/03/07 02:58:46;;;;;;;1.60;1.50;;;14.70;45.00;15.70;101779.00;;;;5033193;28;20178;-46
2022/03/07 03:01:11;;;;;;;2.03;1.83;;;14.70;45.00;15.70;101777.00;;;;5033322;28;20257;-45
2022/03/07 03:03:37;;;;;;;1.60;1.50;;;14.70;45.10;15.70;101785.00;;;;5032753;28;20210;-46
2022/03/07 03:06:03;;;;;;;1.80;1.70;;;14.70;45.10;15.70;101780.00;;;;5032365;28;20390;-47
2022/03/07 03:08:28;;;;;;;1.80;1.70;;;14.70;45.10;15.70;101790.00;;;;5034994;28;20225;-46
2022/03/07 03:10:55;;;;;;;1.80;1.70;;;14.60;45.10;15.70;101789.00;;;;5032819;28;20205;-47
2022/03/07 03:13:22;;;;;;;1.60;1.50;;;14.60;45.10;15.60;101786.00;;;;5031907;28;20523;-45
2022/03/07 03:15:48;;;;;;;1.63;1.57;;;14.60;45.10;15.60;101796.00;;;;5034414;28;20179;-48
2022/03/07 03:18:15;;;;;;;1.70;1.60;;;14.60;45.10;15.60;101798.00;;;;5033306;28;20186;-46
2022/03/07 03:20:40;;;;;;;2.03;1.60;;;14.50;45.10;15.60;101794.00;;;;5032308;28;20174;-46
2022/03/07 03:23:06;;;;;;;1.60;1.50;;;14.50;45.00;15.60;101800.00;;;;5032105;28;20179;-46
2022/03/07 03:25:32;;;;;;;1.77;1.67;;;14.50;45.10;15.60;101801.00;;;;5031147;28;20579;-46
2022/03/07 03:27:57;;;;;;;1.60;1.50;;;14.50;45.10;15.50;101808.00;;;;5032226;28;20171;-46
2022/03/07 03:30:23;;;;;;;1.63;1.50;;;14.50;45.70;15.50;101807.00;;;;5032256;28;20170;-46
2022/03/07 03:32:49;;;;;;;1.60;1.50;;;14.50;45.00;15.50;101802.00;;;;5032644;28;20167;-47
2022/03/07 03:35:15;;;;;;;1.60;1.50;;;14.40;45.00;15.50;101809.00;;;;5036960;28;20199;-45
2022/03/07 03:37:40;;;;;;;1.60;1.50;;;14.50;45.10;15.50;101813.00;;;;5031269;28;20672;-46
2022/03/07 03:40:08;;;;;;;1.60;1.50;;;14.40;45.10;15.40;101821.00;;;;5035443;28;20225;-45
2022/03/07 03:42:34;;;;;;;1.90;1.80;;;14.40;45.10;15.40;101820.00;;;;5031450;28;20183;-46
2022/03/07 03:44:59;;;;;;;1.60;1.50;;;14.40;45.10;15.40;101814.00;;;;5030478;28;20214;-46
2022/03/07 03:47:25;;;;;;;1.80;1.70;;;14.30;44.90;15.40;101816.00;;;;5030822;28;20641;-45
2022/03/07 03:49:51;;;;;;;1.70;1.60;;;14.30;44.90;15.40;101814.00;;;;5030889;28;20168;-45
2022/03/07 03:52:17;;;;;;;1.60;1.50;;;14.30;45.10;15.40;101814.00;;;;5030766;28;20175;-47
2022/03/07 03:54:42;;;;;;;1.60;1.50;;;14.30;45.10;15.30;101819.00;;;;5030835;28;20201;-46
2022/03/07 03:57:08;;;;;;;1.50;1.40;;;14.30;45.10;15.30;101824.00;;;;5029984;28;20190;-45
2022/03/07 03:59:34;;;;;;;1.60;1.50;;;14.20;45.00;15.30;101808.00;;;;5030568;28;20675;-46
2022/03/07 04:02:00;;;;;;;1.60;1.50;;;14.20;45.00;15.30;101813.00;;;;5031922;28;20179;-46
2022/03/07 04:04:26;;;;;;;1.60;1.50;;;14.20;45.70;15.30;101819.00;;;;5033523;28;20294;-46
2022/03/07 04:06:51;;;;;;;1.33;1.30;;;14.20;45.00;15.20;101823.00;;;;5031531;28;20200;-45
2022/03/07 04:09:21;;;;;;;1.73;1.63;;;14.20;45.10;15.20;101829.00;;;;5030532;28;20179;-46
2022/03/07 04:11:47;;;;;;;1.40;1.40;;;14.20;45.00;15.20;101827.00;;;;5030138;28;20175;-46
2022/03/07 04:14:13;;;;;;;1.50;1.40;;;14.20;45.10;15.20;101827.00;;;;5030390;28;20183;-46
2022/03/07 04:16:39;;;;;;;1.63;1.53;;;14.20;45.10;15.20;101831.00;;;;5030353;28;20175;-45
2022/03/07 04:19:06;;;;;;;1.67;1.57;;;14.10;45.00;15.20;101841.00;;;;5030963;28;20179;-46
2022/03/07 04:21:35;;;;;;;1.60;1.50;;;14.10;45.10;15.20;101820.00;;;;5030839;28;20210;-47
2022/03/07 04:24:00;;;;;;;1.60;1.50;;;14.10;45.00;15.10;101837.00;;;;5030643;28;20191;-46
2022/03/07 04:26:26;;;;;;;1.30;1.30;;;14.10;45.10;15.10;101835.00;;;;5030062;28;20207;-46
2022/03/07 04:28:52;;;;;;;3.90;1.73;;;14.00;45.10;15.10;101838.00;;;;5030143;28;20179;-47
2022/03/07 04:31:17;;;;;;;7.53;1.80;;;14.00;45.30;15.10;101830.00;;;;5029911;28;20217;-46
2022/03/07 04:33:43;;;;;;;1.53;1.40;;;14.00;46.70;15.10;101790.00;;;;5029587;28;20532;-46
2022/03/07 04:36:11;;;;;;;1.67;1.57;;;14.10;45.70;15.10;101833.00;;;;5029200;28;20178;-46
2022/03/07 04:38:37;;;;;;;1.57;1.47;;;14.00;45.30;15.00;101835.00;;;;5029005;28;20179;-47
2022/03/07 04:41:03;;;;;;;3.67;1.53;;;14.00;45.30;15.00;101840.00;;;;5029409;28;20182;-46
2022/03/07 04:43:29;;;;;;;3.30;1.53;;;14.00;45.50;15.00;101831.00;;;;5030390;28;20191;-47
2022/03/07 04:45:55;;;;;;;2.03;1.43;;;14.00;45.30;15.00;101834.00;;;;5033577;28;20206;-47
2022/03/07 04:48:21;;;;;;;2.20;1.50;;;13.90;45.20;15.00;101812.00;;;;5033848;28;20241;-46
2022/03/07 04:50:47;;;;;;;2.27;1.57;;;13.90;45.20;15.00;101827.00;;;;5030050;28;20619;-48
2022/03/07 04:53:13;;;;;;;1.60;1.50;;;13.90;45.20;14.90;101832.00;;;;5031489;28;20266;-46
2022/03/07 04:55:38;;;;;;;1.87;1.60;;;13.90;45.20;14.90;101828.00;;;;5009322;28;20435;-46
2022/03/07 04:58:04;;;;;;;2.83;1.50;;;13.90;45.20;14.70;101828.00;;;;5009280;28;20632;-47
2022/03/07 05:00:30;;;;;;;1.60;1.50;;;13.90;45.20;14.90;101833.00;;;;5010228;28;20246;-46
2022/03/07 05:02:56;;;;;;;2.07;1.50;;;13.80;45.10;14.90;101829.00;;;;5008864;28;20263;-47
2022/03/07 05:05:21;;;;;;;1.70;1.30;;;13.80;45.10;14.60;101836.00;;;;5008865;28;20238;-47
2022/03/07 05:07:50;;;;;;;1.93;1.40;;;13.80;45.10;14.90;101836.00;;;;5012884;28;20180;-47
2022/03/07 05:10:17;;;;;;;1.40;1.30;;;13.80;45.80;14.80;101830.00;;;;5009160;28;20689;-47
2022/03/07 05:12:43;;;;;;;1.47;1.37;;;13.80;45.10;14.80;101839.00;;;;5009516;28;20233;-47
2022/03/07 05:15:09;;;;;;;2.20;1.47;;;13.80;45.10;14.80;101836.00;;;;5011710;28;20199;-47
2022/03/07 05:17:48;;;;;;;1.60;1.50;;;13.70;45.00;14.80;101839.00;;;;5017279;28;20245;-46
2022/03/07 05:20:14;;;;;;;2.13;1.70;;;13.70;45.00;14.80;101853.00;;;;5008361;28;20163;-47
2022/03/07 05:22:40;;;;;;;1.60;1.50;;;13.70;45.10;14.80;101847.00;;;;5022996;28;20186;-46
2022/03/07 05:25:07;;;;;;;2.90;1.50;;;13.70;45.00;14.70;101856.00;;;;5012022;28;20598;-46
2022/03/07 05:27:32;;;;;;;1.77;1.63;;;13.70;45.00;14.70;101852.00;;;;5008451;28;20255;-47
2022/03/07 05:29:58;;;;;;;2.30;1.70;;;13.70;45.00;14.70;101858.00;;;;5009641;28;20644;-46
2022/03/07 05:32:24;;;;;;;1.90;1.70;;;13.60;44.80;14.70;101860.00;;;;5012417;28;20230;-48
2022/03/07 05:34:50;;;;;;;2.33;1.50;;;13.60;44.70;14.70;101857.00;;;;5010624;28;20191;-46
2022/03/07 05:37:15;;;;;;;2.03;1.70;;;13.60;44.60;14.60;101854.00;;;;5010766;28;20180;-46
2022/03/07 05:39:41;;;;;;;2.67;1.60;;;13.60;44.60;14.60;101860.00;;;;5012806;28;20190;-46
2022/03/07 05:42:07;;;;;;;2.17;1.70;;;13.60;44.50;14.60;101858.00;;;;5012107;28;20699;-47
2022/03/07 05:44:33;;;;;;;2.50;1.90;;;13.50;44.50;14.60;101870.00;;;;5012643;28;20203;-48
2022/03/07 05:46:59;;;;;;;2.13;1.80;;;13.60;44.60;14.60;101865.00;;;;5011050;28;20175;-46
2022/03/07 05:49:25;;;;;;;5.67;1.83;;;13.50;44.60;14.50;101865.00;;;;5008476;28;20163;-45
2022/03/07 05:51:50;;;;;;;1.90;1.70;;;13.50;44.50;14.50;101860.00;;;;5008291;28;20168;-47
2022/03/07 05:54:16;;;;;;;4.20;1.77;;;13.50;44.60;14.50;101870.00;;;;5009100;28;20199;-46
2022/03/07 05:56:42;;;;;;;3.77;1.90;;;13.50;44.70;14.50;101859.00;;;;5011147;28;20179;-47
2022/03/07 05:59:08;;;;;;;5.23;1.97;;;13.50;44.80;14.50;101864.00;;;;5010001;28;20171;-46
2022/03/07 06:01:33;;;;;;;2.47;1.70;;;13.40;44.50;14.50;101796.00;;;;5011366;28;20545;-46
2022/03/07 06:03:59;;;;;;;1.90;1.60;;;13.50;44.90;14.40;101856.00;;;;5013831;28;20188;-46
2022/03/07 06:06:25;;;;;;;3.90;1.70;;;13.40;44.80;14.40;101857.00;;;;5014655;28;20199;-46
2022/03/07 06:08:51;;;;;;;3.63;1.70;;;13.50;44.90;14.40;101854.00;;;;5019352;28;20214;-46
2022/03/07 06:11:16;;;;;;;3.83;1.70;;;13.40;44.80;14.40;101855.00;;;;5026039;28;20171;-47
2022/03/07 06:13:42;;;;;;;3.10;1.70;;;13.40;44.80;14.40;101870.00;;;;5036943;28;20198;-47
2022/03/07 06:16:08;;;;;;;1.90;1.80;;;13.40;44.80;14.40;101861.00;;;;5034437;28;20261;-46
2022/03/07 06:18:34;;;;;;;2.57;1.50;;;13.40;44.80;14.40;101872.00;;;;5032031;28;20205;-46
2022/03/07 06:21:00;;;;;;;2.70;1.80;;;13.40;44.80;14.30;101873.00;;;;5032451;28;20175;-46
2022/03/07 06:23:25;;;;;;;2.30;1.60;;;13.30;44.70;14.30;101879.00;;;;5032084;28;20285;-47
2022/03/07 06:25:51;;;;;;;1.80;1.70;;;13.30;44.70;14.30;101881.00;;;;5034601;28;20348;-45
2022/03/07 06:28:17;;;;;;;2.07;1.40;;;13.30;44.70;14.30;101885.00;;;;5035588;28;20493;-45
2022/03/07 06:30:49;;;;;;;2.03;1.70;;;13.20;44.60;14.30;101879.00;;;;5034818;28;20686;-46
2022/03/07 06:33:15;;;;;;;2.63;1.80;;;13.30;44.70;14.20;101888.00;;;;5031289;28;20179;-45
2022/03/07 06:35:41;;;;;;;2.33;1.70;;;13.20;44.70;14.20;101878.00;;;;5034846;28;20193;-47
2022/03/07 06:38:07;;;;;;;2.73;1.80;;;13.20;45.30;14.20;101881.00;;;;5034696;28;20232;-45
2022/03/07 06:40:33;;;;;;;2.87;1.70;;;13.20;44.60;14.20;101880.00;;;;5031381;28;20187;-46
2022/03/07 06:43:00;;;;;;;1.87;1.70;;;13.20;44.70;14.20;101871.00;;;;5031866;28;20592;-46
2022/03/07 06:45:27;;;;;;;2.50;1.70;;;13.20;44.70;14.20;101886.00;;;;5034997;28;20210;-45
2022/03/07 06:47:53;;;;;;;2.10;1.67;;;13.20;44.60;14.20;101879.00;;;;5033907;28;20186;-46
2022/03/07 06:50:18;;;;;;;1.70;1.60;;;13.10;44.60;14.20;101888.00;;;;5031258;28;20405;-47
2022/03/07 06:52:44;;;;;;;1.70;1.60;;;13.10;44.60;14.10;101878.00;;;;5030825;28;20167;-45
2022/03/07 06:55:10;;;;;;;2.03;1.70;;;13.10;44.60;14.10;101888.00;;;;5031415;28;20285;-45
2022/03/07 06:57:36;;;;;;;1.97;1.60;;;13.10;44.70;14.10;101820.00;;;;5031226;28;20187;-46
2022/03/07 07:00:03;;;;;;;2.63;1.80;;;13.10;44.70;14.10;101882.00;;;;5036486;28;20182;-46
2022/03/07 07:02:29;;;;;;;2.17;1.80;;;13.00;44.60;14.10;101886.00;;;;5033923;28;20179;-46
2022/03/07 07:04:55;;;;;;;1.87;1.77;;;13.10;44.80;14.10;101895.00;;;;5031746;28;20201;-45
2022/03/07 07:07:21;;;;;;;1.80;1.70;;;13.10;44.80;14.00;101898.00;;;;5033359;28;20178;-46
2022/03/07 07:09:46;;;;;;;1.93;1.80;;;13.00;44.50;14.00;101829.00;;;;5034705;28;20182;-46
2022/03/07 07:12:12;;;;;;;1.80;1.70;;;13.00;44.80;14.00;101892.00;;;;5034499;28;20669;-47
2022/03/07 07:14:38;;;;;;;2.10;1.83;;;13.00;44.60;14.00;101893.00;;;;5034337;28;20198;-46
2022/03/07 07:17:03;;;;;;;3.23;1.80;;;13.00;44.80;14.00;101904.00;;;;5033950;28;20171;-46
2022/03/07 07:19:30;;;;;;;1.70;1.60;;;13.00;44.80;13.90;101893.00;;;;5032948;28;20682;-46
2022/03/07 07:21:55;;;;;;;1.70;1.60;;;13.00;44.80;13.90;101895.00;;;;5034261;28;20190;-46
2022/03/07 07:24:21;;;;;;;1.70;1.60;;;13.00;44.80;13.90;101898.00;;;;5034050;28;20191;-45
2022/03/07 07:26:47;;;;;;;1.80;1.70;;;12.90;44.70;13.90;101894.00;;;;5033643;28;20463;-46
2022/03/07 07:29:12;;;;;;;2.30;1.87;;;12.90;44.80;13.90;101899.00;;;;5033741;28;20174;-46
2022/03/07 07:31:38;;;;;;;1.90;1.70;;;12.90;44.80;13.90;101904.00;;;;5037166;28;20186;-47
2022/03/07 07:34:04;;;;;;;1.80;1.70;;;12.90;44.80;13.90;101910.00;;;;5035385;28;20190;-45
2022/03/07 07:36:29;;;;;;;2.10;1.90;;;12.90;44.80;13.90;101911.00;;;;5033364;28;20191;-45
2022/03/07 07:38:55;;;;;;;1.97;1.87;;;12.90;44.90;13.90;101902.00;;;;5030047;28;20224;-47
2022/03/07 07:41:21;;;;;;;2.13;1.93;;;12.80;44.80;13.90;101910.00;;;;5030873;28;20186;-46
2022/03/07 07:43:49;;;;;;;2.00;1.90;;;12.90;44.90;13.80;101902.00;;;;5034328;28;20198;-46
2022/03/07 07:46:15;;;;;;;1.97;1.80;;;12.80;45.60;13.80;101905.00;;;;5034076;28;20210;-47
2022/03/07 07:48:41;;;;;;;2.00;1.90;;;12.80;45.00;13.80;101911.00;;;;5030027;28;20178;-46
2022/03/07 07:51:07;;;;;;;2.07;1.87;;;12.80;45.00;13.80;101902.00;;;;5030045;28;20179;-46
2022/03/07 07:53:32;;;;;;;2.60;2.20;;;12.80;45.00;13.80;101901.00;;;;5032933;28;20785;-45
2022/03/07 07:55:58;;;;;;;2.20;2.00;;;12.80;45.00;13.80;101902.00;;;;5033229;28;20195;-45
2022/03/07 07:58:24;;;;;;;2.20;2.00;;;12.70;44.90;13.70;101911.00;;;;5029747;28;20237;-46
2022/03/07 08:00:49;;;;;;;2.43;2.23;;;12.80;45.00;13.70;101911.00;;;;5029521;28;20484;-47
2022/03/07 08:03:15;;;;;;;2.87;2.20;;;12.80;45.00;13.70;101913.00;;;;5029597;28;20175;-46
2022/03/07 08:05:41;;;;;;;3.57;1.90;;;12.80;45.10;13.70;101908.00;;;;5031541;28;20558;-47
2022/03/07 08:08:06;;;;;;;2.30;2.10;;;12.80;45.30;13.70;101912.00;;;;5033747;28;20175;-45
2022/03/07 08:10:32;;;;;;;3.50;2.10;;;12.70;45.10;13.70;101904.00;;;;5033313;28;20178;-46
2022/03/07 08:12:58;;;;;;;3.30;1.90;;;12.70;45.50;13.70;101924.00;;;;5034152;28;20174;-46
2022/03/07 08:15:24;;;;;;;2.17;2.03;;;12.70;45.60;13.60;101897.00;;;;5032870;28;20225;-46
2022/03/07 08:17:50;;;;;;;2.43;1.93;;;12.70;45.90;13.60;101910.00;;;;5033894;28;20237;-46
2022/03/07 08:20:27;;;;;;;2.33;2.10;;;12.80;46.50;13.70;101902.00;;;;5033106;28;20206;-46
2022/03/07 08:22:53;;;;;;;2.30;2.10;;;12.90;46.50;13.70;101889.00;;;;5033947;28;20162;-45
2022/03/07 08:25:20;;;;;;;2.00;1.90;;;13.20;46.30;13.80;101901.00;;;;5033079;28;20580;-46
2022/03/07 08:27:46;;;;;;;2.13;2.00;;;13.30;46.70;13.80;101899.00;;;;5032765;28;20156;-46
2022/03/07 08:30:13;;;;;;;2.77;1.83;;;13.40;45.90;13.90;101898.00;;;;5032873;28;20186;-46
2022/03/07 08:32:40;;;;;;;2.40;2.20;;;13.50;45.80;14.00;101899.00;;;;5030653;28;20582;-46
2022/03/07 08:35:06;;;;;;;2.00;1.80;;;13.60;45.70;14.00;101898.00;;;;5033421;28;20191;-46
2022/03/07 08:37:32;;;;;;;2.17;1.97;;;13.60;45.70;14.10;101899.00;;;;5031620;28;20539;-46
2022/03/07 08:39:59;;;;;;;2.43;2.00;;;13.70;45.70;14.10;101894.00;;;;5032979;28;20652;-46
2022/03/07 08:42:24;;;;;;;1.83;1.73;;;13.70;46.30;14.20;101897.00;;;;5032894;28;20175;-45
2022/03/07 08:44:52;;;;;;;2.30;2.10;;;13.80;45.70;14.20;101904.00;;;;5031065;28;20199;-46
2022/03/07 08:47:17;;;;;;;2.07;1.87;;;13.80;45.60;14.30;101894.00;;;;5021131;28;20179;-46
2022/03/07 08:49:43;;;;;;;4.27;1.80;;;13.90;45.70;14.30;101902.00;;;;5011301;28;20171;-45
2022/03/07 08:52:09;;;;;;;2.00;1.80;;;13.90;45.70;14.40;101904.00;;;;5010612;28;20172;-45
2022/03/07 08:54:35;;;;;;;3.80;1.83;;;13.90;45.60;14.40;101907.00;;;;5011012;28;20528;-47
2022/03/07 08:57:02;;;;;;;2.17;1.83;;;14.00;45.70;14.40;101833.00;;;;5018717;28;20179;-46
2022/03/07 08:59:28;;;;;;;2.40;2.10;;;14.00;45.70;14.50;101909.00;;;;5013133;28;20171;-47
2022/03/07 09:01:56;;;;;;;3.87;1.90;;;14.10;45.70;14.50;101895.00;;;;5014220;28;20525;-46
2022/03/07 09:04:24;;;;;;;5.07;2.10;;;14.10;45.70;14.60;101899.00;;;;5012316;28;20199;-45
2022/03/07 09:06:51;;;;;;;2.10;1.90;;;14.10;45.70;14.60;101910.00;;;;5010918;28;20255;-45
2022/03/07 09:09:16;;;;;;;2.03;1.80;;;14.20;45.70;14.60;101906.00;;;;5009572;28;20202;-45
2022/03/07 09:11:42;;;;;;;2.00;1.90;;;14.20;46.20;14.60;101898.00;;;;5009730;28;20645;-45
2022/03/07 09:14:08;;;;;;;3.10;1.80;;;14.30;46.50;14.70;101908.00;;;;5011732;28;20246;-44
2022/03/07 09:16:34;;;;;;;3.10;1.90;;;14.30;46.60;14.70;101903.00;;;;5012683;28;20180;-45
2022/03/07 09:18:59;;;;;;;5.33;2.00;;;14.30;46.70;14.80;101900.00;;;;5011086;28;20171;-45
2022/03/07 09:21:25;;;;;;;2.20;1.73;;;14.40;46.70;14.80;101907.00;;;;5010702;28;20180;-46
2022/03/07 09:23:51;;;;;;;2.43;1.70;;;14.40;46.70;14.80;101899.00;;;;5012511;28;20659;-48
2022/03/07 09:26:17;;;;;;;2.23;2.00;;;14.50;46.90;14.90;101891.00;;;;5026574;28;20672;-46
2022/03/07 09:28:43;;;;;;;2.63;1.70;;;14.50;46.40;14.90;101888.00;;;;5028811;28;20816;-46
2022/03/07 09:31:09;;;;;;;2.70;1.77;;;14.50;46.60;14.90;101901.00;;;;5026942;28;20238;-46
2022/03/07 09:33:35;;;;;;;3.20;1.77;;;14.50;46.50;14.90;101881.00;;;;5029559;28;20187;-45
2022/03/07 09:36:01;;;;;;;4.00;1.80;;;14.60;46.50;15.00;101880.00;;;;5032022;28;20192;-45
2022/03/07 09:38:28;;;;;;;2.13;1.67;;;14.60;46.70;15.00;101887.00;;;;5032918;28;20175;-45
2022/03/07 09:40:55;;;;;;;1.93;1.70;;;14.70;46.60;15.10;101876.00;;;;5031618;28;20167;-46
2022/03/07 09:43:20;;;;;;;4.13;1.60;;;14.70;46.40;15.10;101881.00;;;;5031763;28;20205;-45
2022/03/07 09:45:47;;;;;;;4.50;1.50;;;14.70;46.20;15.10;101876.00;;;;5031930;28;20675;-45
2022/03/07 09:48:12;;;;;;;3.40;1.77;;;14.80;46.30;15.20;101881.00;;;;5032446;28;20171;-45
2022/03/07 09:50:40;;;;;;;1.70;1.60;;;14.80;46.30;15.20;101871.00;;;;5031301;28;20167;-47
2022/03/07 09:53:07;;;;;;;4.67;1.63;;;14.80;46.30;15.20;101875.00;;;;5032792;28;20175;-46
2022/03/07 09:55:32;;;;;;;2.57;1.60;;;14.80;46.20;15.30;101870.00;;;;5029908;28;20179;-46
2022/03/07 09:57:58;;;;;;;1.70;1.60;;;14.90;46.10;15.30;101860.00;;;;5031430;28;20190;-45
2022/03/07 10:00:24;;;;;;;2.70;1.80;;;14.90;46.10;15.30;101862.00;;;;5031744;28;20179;-45
2022/03/07 10:02:57;;;;;;;4.27;1.70;;;14.90;47.20;15.30;101851.00;;;;5032889;28;20174;-47
2022/03/07 10:05:27;;;;;;;3.03;1.70;;;14.90;46.60;15.40;101857.00;;;;5032728;28;20199;-45
2022/03/07 10:07:52;;;;;;;2.43;1.37;;;15.00;46.50;15.40;101852.00;;;;5031769;28;20175;-46
2022/03/07 10:10:18;;;;;;;4.70;1.50;;;15.00;46.40;15.40;101855.00;;;;5031804;28;20225;-46
2022/03/07 10:12:50;;;;;;;4.07;1.70;;;15.00;46.40;15.40;101856.00;;;;5030925;28;20561;-46
2022/03/07 10:15:21;;;;;;;5.90;1.70;;;15.10;46.60;15.50;101845.00;;;;5032831;28;20253;-46
2022/03/07 10:17:54;;;;;;;7.03;1.97;;;15.10;46.70;15.50;101852.00;;;;5035210;28;20655;-46
2022/03/07 10:20:25;;;;;;;7.00;2.10;;;15.10;46.90;15.50;101846.00;;;;5027719;28;20271;-45
2022/03/07 10:22:53;;;;;;;6.70;2.30;;;15.20;47.00;15.60;101841.00;;;;5011905;28;20168;-45
2022/03/07 10:25:27;;;;;;;14.83;4.17;;;15.20;47.00;15.60;101843.00;;;;5010115;28;20242;-46
2022/03/07 10:27:53;;;;;;;18.57;4.90;;;15.30;47.10;15.70;101851.00;;;;5020008;28;20194;-46
2022/03/07 10:30:28;;;;;;;15.30;4.60;;;15.20;47.50;15.70;101843.00;;;;5031853;28;20182;-48
2022/03/07 10:33:00;;;;;;;16.90;4.97;;;15.20;47.80;15.70;101842.00;;;;5030584;28;20167;-48
2022/03/07 10:35:31;;;;;;;13.57;4.50;;;15.30;47.70;15.70;101842.00;;;;5029695;28;20547;-47
2022/03/07 10:38:05;;;;;;;15.50;4.80;;;15.40;47.70;15.80;101840.00;;;;5031189;28;20257;-47
2022/03/07 10:40:32;;;;;;;17.60;5.40;;;15.50;48.30;15.80;101831.00;;;;5031694;28;20168;-46
2022/03/07 10:43:00;;;;;;;15.17;4.30;;;15.50;47.40;15.80;101832.00;;;;5043746;28;20339;-48